Frem Nordica — OVIL2 — position and weather

sailwx.info

Track history (hours):
 
Tides and Currents Weather Stations Pressure Air Temp Water Temp Dewpoint Dewpoint Depression Visibility Wind Speed Wind Dir Waves Ship Positions

Frem Nordica

Last reported at 2015-Feb-17 14:12 UTC. Time now 2015-Feb-28 05:27 UTC.
Position N 57°53' E 010°58'.
Warning: this ship's position is 10 days out of date.

Length 79 m; draft 2.8 m.

MMSI: 220439000.

Date/timePositionNaut miles runAvg speedWind from/ knotsBaromVisibWave heightAir tempDewpointWater temp
2015-Feb-17 14:12N 57°53' E 010°58'4 6.5
2015-Feb-17 13:33N 57°57' E 011°02'7 6.6
2015-Feb-17 12:33N 58°02' E 011°08'5 5.5
2015-Feb-17 11:33N 58°07' E 011°14'7 6.7
2015-Feb-17 10:33N 58°13' E 011°18'5 5.5
2015-Feb-17 09:33N 58°16' E 011°27'0 0.0
2015-Feb-17 08:25N 58°16' E 011°27'0 0.0
2015-Feb-17 07:31N 58°16' E 011°27'0 0.0
2015-Feb-17 06:31N 58°16' E 011°27'0 0.0
2015-Feb-17 05:25N 58°16' E 011°27'0 0.0
2015-Feb-17 04:31N 58°16' E 011°27'0 0.0
2015-Feb-17 03:28N 58°16' E 011°27'0 0.0
2015-Feb-17 02:31N 58°16' E 011°27'0 0.0
2015-Feb-17 01:19N 58°16' E 011°27'0 0.0
2015-Feb-17 00:31N 58°16' E 011°27'0 0.0
2015-Feb-16 23:31N 58°16' E 011°27'0 0.0
2015-Feb-16 22:31N 58°16' E 011°27'0 0.0
2015-Feb-16 21:31N 58°16' E 011°27'0 0.0
2015-Feb-16 20:31N 58°16' E 011°27'0 0.0
2015-Feb-16 19:31N 58°16' E 011°27'0 0.0
2015-Feb-16 18:31N 58°16' E 011°27'0 0.0
2015-Feb-16 17:31N 58°16' E 011°27'0 0.0
2015-Feb-16 16:31N 58°16' E 011°27'0 0.0
2015-Feb-16 15:31N 58°16' E 011°27'0 0.0
2015-Feb-16 14:31N 58°16' E 011°27'0 0.0
2015-Feb-16 13:19N 58°16' E 011°27'0 0.0
2015-Feb-16 12:31N 58°16' E 011°27'0 0.0
2015-Feb-16 11:28N 58°16' E 011°27'0 0.0
2015-Feb-16 10:31N 58°16' E 011°27'0 0.0
2015-Feb-16 09:31N 58°16' E 011°27'0 0.0
2015-Feb-16 08:31N 58°16' E 011°27'0 0.0
2015-Feb-16 07:31N 58°16' E 011°27'0 0.0
2015-Feb-16 06:28N 58°16' E 011°27'1 1.6
2015-Feb-16 05:34N 58°16' E 011°24'6 6.5
2015-Feb-16 04:34N 58°11' E 011°17'8 8.3
2015-Feb-16 03:34N 58°03' E 011°16'9 9.3
2015-Feb-16 02:34N 57°53' E 011°19'9 8.8
2015-Feb-16 01:33N 57°45' E 011°22'8 8.3
2015-Feb-16 00:33N 57°37' E 011°24'8 8.4
2015-Feb-15 23:34N 57°28' E 011°27'9 8.9
2015-Feb-15 22:33N 57°20' E 011°32'14 9.1
2015-Feb-15 21:04N 57°07' E 011°40'5 8.7
2015-Feb-15 20:33N 57°03' E 011°44'9 8.7
2015-Feb-15 19:33N 56°55' E 011°51'9 9.0
2015-Feb-15 18:33N 56°49' E 012°03'9 8.9
2015-Feb-15 17:33N 56°43' E 012°15'8 8.2
2015-Feb-15 16:33N 56°35' E 012°20'9 8.9
2015-Feb-15 15:34N 56°27' E 012°23'1010.2
2015-Feb-15 14:34N 56°17' E 012°26'1010.2
2015-Feb-15 13:33N 56°07' E 012°33'1110.7
2015-Feb-15 12:34N 55°58' E 012°43'9 9.2
2015-Feb-15 11:34N 55°49' E 012°43'9 8.8
2015-Feb-15 10:34N 55°40' E 012°41'9 9.0
2015-Feb-15 09:33N 55°31' E 012°40'7 7.3
2015-Feb-15 08:33N 55°28' E 012°28'7 6.8
2015-Feb-15 07:34N 55°27' E 012°16'3 2.6
2015-Feb-15 06:30N 55°27' E 012°12'0 0.0
2015-Feb-15 05:33N 55°27' E 012°12'0 0.0
2015-Feb-15 04:33N 55°27' E 012°12'0 0.0
2015-Feb-15 03:33N 55°27' E 012°12'0 0.0
2015-Feb-15 02:33N 55°27' E 012°12'0 0.0
2015-Feb-15 01:27N 55°27' E 012°12'0 0.0
2015-Feb-15 00:33N 55°27' E 012°12'0 0.0
2015-Feb-14 23:33N 55°27' E 012°12'0 0.0
2015-Feb-14 19:27N 55°27' E 012°12'0 0.0
2015-Feb-14 18:33N 55°27' E 012°12'0 0.0
2015-Feb-14 17:33N 55°27' E 012°12'0 0.0
2015-Feb-14 15:24N 55°27' E 012°12'0 0.0
2015-Feb-14 14:27N 55°27' E 012°12'0 0.0
2015-Feb-14 12:33N 55°27' E 012°12'6 5.9
2015-Feb-14 11:33N 55°26' E 012°22'7 6.7
2015-Feb-14 10:33N 55°20' E 012°28'1 1.1
2015-Feb-14 09:33N 55°19' E 012°27'0 0.0
2015-Feb-14 08:27N 55°19' E 012°27'0 0.0
2015-Feb-14 07:33N 55°19' E 012°27'0 0.0
2015-Feb-14 06:33N 55°19' E 012°27'2 2.0
2015-Feb-14 05:33N 55°20' E 012°30'9 8.7
2015-Feb-14 04:34N 55°28' E 012°37'8 8.0
2015-Feb-14 03:33N 55°36' E 012°42'8 7.5
2015-Feb-14 02:33N 55°43' E 012°41'8 8.3
2015-Feb-14 01:33N 55°51' E 012°39'8 8.1
2015-Feb-14 00:33N 55°59' E 012°38'6 6.4
2015-Feb-13 23:33N 56°05' E 012°34'7 7.0
2015-Feb-13 22:33N 56°09' E 012°24'9 8.5
2015-Feb-13 21:33N 56°12' E 012°09'10 8.8
2015-Feb-13 20:26N 56°14' E 011°52'56 2.3
2015-Feb-12 20:22N 56°59' E 010°51'9 8.0
2015-Feb-12 19:18N 57°08' E 010°46'7 7.8
2015-Feb-12 18:26N 57°14' E 010°43'8 7.9
2015-Feb-12 17:29N 57°21' E 010°39'6 0.6
2015-Feb-12 07:11N 57°26' E 010°33'0 0.1
2015-Feb-12 06:28N 57°26' E 010°33'28 6.9
2015-Feb-12 02:29N 57°52' E 010°54'7 7.4
2015-Feb-12 01:33N 57°57' E 011°01'7 7.2
2015-Feb-12 00:33N 58°04' E 011°08'6 6.2
2015-Feb-11 23:33N 58°09' E 011°13'6 6.4
2015-Feb-11 22:33N 58°15' E 011°19'4 4.1
2015-Feb-11 21:33N 58°16' E 011°27'1 0.8
2015-Feb-11 20:30N 58°17' E 011°27'0 0.0
2015-Feb-11 19:33N 58°17' E 011°27'0 0.0
2015-Feb-11 18:33N 58°17' E 011°27'0 0.0
2015-Feb-11 17:27N 58°17' E 011°27'0 0.0
2015-Feb-11 16:33N 58°17' E 011°27'0 0.0
2015-Feb-11 15:33N 58°17' E 011°27'0 0.0
2015-Feb-11 14:33N 58°17' E 011°27'0 0.0
2015-Feb-11 13:30N 58°17' E 011°27'0 0.0
2015-Feb-11 12:21N 58°17' E 011°27'0 0.0
2015-Feb-11 11:30N 58°17' E 011°27'0 0.0
2015-Feb-11 10:33N 58°17' E 011°27'0 0.0
2015-Feb-11 09:27N 58°17' E 011°27'0 0.0
2015-Feb-11 08:24N 58°17' E 011°27'0 0.0
2015-Feb-11 07:33N 58°17' E 011°27'0 0.0
2015-Feb-11 06:33N 58°17' E 011°27'0 0.0
2015-Feb-11 05:27N 58°17' E 011°27'0 0.0
2015-Feb-11 04:18N 58°17' E 011°27'0 0.0
2015-Feb-11 03:33N 58°17' E 011°27'0 0.0
2015-Feb-11 02:24N 58°17' E 011°27'0 0.0
2015-Feb-11 01:18N 58°17' E 011°27'0 0.0
2015-Feb-11 00:30N 58°17' E 011°27'0 0.0
2015-Feb-10 23:33N 58°17' E 011°27'0 0.0
2015-Feb-10 22:15N 58°17' E 011°27'0 0.0
2015-Feb-10 21:21N 58°17' E 011°27'0 0.0
2015-Feb-10 20:30N 58°17' E 011°27'0 0.0
2015-Feb-10 19:30N 58°17' E 011°27'0 0.0
2015-Feb-10 18:30N 58°17' E 011°27'0 0.0
2015-Feb-10 17:28N 58°17' E 011°27'3 3.4
2015-Feb-10 16:33N 58°16' E 011°21'8 8.2
2015-Feb-10 15:34N 58°11' E 011°09'9 8.7
2015-Feb-10 14:33N 58°04' E 010°59'9 8.7
2015-Feb-10 13:34N 57°57' E 010°48'9 9.0
2015-Feb-10 12:33N 57°51' E 010°36'9 8.8
2015-Feb-10 11:33N 57°46' E 010°23'51 8.5
2015-Feb-10 05:33N 57°21' E 008°60'7 7.4
2015-Feb-10 04:32N 57°17' E 008°48'22 6.6
2015-Feb-10 01:09N 57°04' E 008°14'43 4.5
2015-Feb-09 15:33N 56°24' E 007°44'23 2.8
2015-Feb-09 07:26N 56°01' E 007°37'3 3.5
2015-Feb-09 06:33N 55°58' E 007°39'5 4.9
2015-Feb-09 05:32N 55°54' E 007°34'29 5.4
2015-Feb-09 00:10N 55°28' E 007°11'3 4.4
2015-Feb-08 23:34N 55°26' E 007°09'5 4.8
2015-Feb-08 22:33N 55°22' E 007°05'5 4.9
2015-Feb-08 21:33N 55°17' E 007°02'6 5.7
2015-Feb-08 20:34N 55°12' E 006°59'6 5.8
2015-Feb-08 19:34N 55°06' E 006°56'6 5.9
2015-Feb-08 18:33N 55°01' E 006°52'90 3.3
2015-Feb-07 15:20N 53°31' E 006°47'810.5
2015-Feb-07 14:33N 53°25' E 006°56'  
Track history (hours):
 
Tides and Currents Weather Stations Pressure Air Temp Water Temp Dewpoint Dewpoint Depression Visibility Wind Speed Wind Dir Waves Ship Positions

Frem Nordica

Last reported at 2015-Feb-17 14:12 UTC. Time now 2015-Feb-28 05:27 UTC.
Position N 57°53' E 010°58'.
Warning: this ship's position is 10 days out of date.

Length 79 m; draft 2.8 m.

MMSI: 220439000.

Date/timePositionNaut miles runAvg speedWind from/ knotsBaromVisibWave heightAir tempDewpointWater temp
2015-Feb-17 14:12N 57°53' E 010°58'4 6.5
2015-Feb-17 13:33N 57°57' E 011°02'7 6.6
2015-Feb-17 12:33N 58°02' E 011°08'5 5.5
2015-Feb-17 11:33N 58°07' E 011°14'7 6.7
2015-Feb-17 10:33N 58°13' E 011°18'5 5.5
2015-Feb-17 09:33N 58°16' E 011°27'0 0.0
2015-Feb-17 08:25N 58°16' E 011°27'0 0.0
2015-Feb-17 07:31N 58°16' E 011°27'0 0.0
2015-Feb-17 06:31N 58°16' E 011°27'0 0.0
2015-Feb-17 05:25N 58°16' E 011°27'0 0.0
2015-Feb-17 04:31N 58°16' E 011°27'0 0.0
2015-Feb-17 03:28N 58°16' E 011°27'0 0.0
2015-Feb-17 02:31N 58°16' E 011°27'0 0.0
2015-Feb-17 01:19N 58°16' E 011°27'0 0.0
2015-Feb-17 00:31N 58°16' E 011°27'0 0.0
2015-Feb-16 23:31N 58°16' E 011°27'0 0.0
2015-Feb-16 22:31N 58°16' E 011°27'0 0.0
2015-Feb-16 21:31N 58°16' E 011°27'0 0.0
2015-Feb-16 20:31N 58°16' E 011°27'0 0.0
2015-Feb-16 19:31N 58°16' E 011°27'0 0.0
2015-Feb-16 18:31N 58°16' E 011°27'0 0.0
2015-Feb-16 17:31N 58°16' E 011°27'0 0.0
2015-Feb-16 16:31N 58°16' E 011°27'0 0.0
2015-Feb-16 15:31N 58°16' E 011°27'0 0.0
2015-Feb-16 14:31N 58°16' E 011°27'0 0.0
2015-Feb-16 13:19N 58°16' E 011°27'0 0.0
2015-Feb-16 12:31N 58°16' E 011°27'0 0.0
2015-Feb-16 11:28N 58°16' E 011°27'0 0.0
2015-Feb-16 10:31N 58°16' E 011°27'0 0.0
2015-Feb-16 09:31N 58°16' E 011°27'0 0.0
2015-Feb-16 08:31N 58°16' E 011°27'0 0.0
2015-Feb-16 07:31N 58°16' E 011°27'0 0.0
2015-Feb-16 06:28N 58°16' E 011°27'1 1.6
2015-Feb-16 05:34N 58°16' E 011°24'6 6.5
2015-Feb-16 04:34N 58°11' E 011°17'8 8.3
2015-Feb-16 03:34N 58°03' E 011°16'9 9.3
2015-Feb-16 02:34N 57°53' E 011°19'9 8.8
2015-Feb-16 01:33N 57°45' E 011°22'8 8.3
2015-Feb-16 00:33N 57°37' E 011°24'8 8.4
2015-Feb-15 23:34N 57°28' E 011°27'9 8.9
2015-Feb-15 22:33N 57°20' E 011°32'14 9.1
2015-Feb-15 21:04N 57°07' E 011°40'5 8.7
2015-Feb-15 20:33N 57°03' E 011°44'9 8.7
2015-Feb-15 19:33N 56°55' E 011°51'9 9.0
2015-Feb-15 18:33N 56°49' E 012°03'9 8.9
2015-Feb-15 17:33N 56°43' E 012°15'8 8.2
2015-Feb-15 16:33N 56°35' E 012°20'9 8.9
2015-Feb-15 15:34N 56°27' E 012°23'1010.2
2015-Feb-15 14:34N 56°17' E 012°26'1010.2
2015-Feb-15 13:33N 56°07' E 012°33'1110.7
2015-Feb-15 12:34N 55°58' E 012°43'9 9.2
2015-Feb-15 11:34N 55°49' E 012°43'9 8.8
2015-Feb-15 10:34N 55°40' E 012°41'9 9.0
2015-Feb-15 09:33N 55°31' E 012°40'7 7.3
2015-Feb-15 08:33N 55°28' E 012°28'7 6.8
2015-Feb-15 07:34N 55°27' E 012°16'3 2.6
2015-Feb-15 06:30N 55°27' E 012°12'0 0.0
2015-Feb-15 05:33N 55°27' E 012°12'0 0.0
2015-Feb-15 04:33N 55°27' E 012°12'0 0.0
2015-Feb-15 03:33N 55°27' E 012°12'0 0.0
2015-Feb-15 02:33N 55°27' E 012°12'0 0.0
2015-Feb-15 01:27N 55°27' E 012°12'0 0.0
2015-Feb-15 00:33N 55°27' E 012°12'0 0.0
2015-Feb-14 23:33N 55°27' E 012°12'0 0.0
2015-Feb-14 19:27N 55°27' E 012°12'0 0.0
2015-Feb-14 18:33N 55°27' E 012°12'0 0.0
2015-Feb-14 17:33N 55°27' E 012°12'0 0.0
2015-Feb-14 15:24N 55°27' E 012°12'0 0.0
2015-Feb-14 14:27N 55°27' E 012°12'0 0.0
2015-Feb-14 12:33N 55°27' E 012°12'6 5.9
2015-Feb-14 11:33N 55°26' E 012°22'7 6.7
2015-Feb-14 10:33N 55°20' E 012°28'1 1.1
2015-Feb-14 09:33N 55°19' E 012°27'0 0.0
2015-Feb-14 08:27N 55°19' E 012°27'0 0.0
2015-Feb-14 07:33N 55°19' E 012°27'0 0.0
2015-Feb-14 06:33N 55°19' E 012°27'2 2.0
2015-Feb-14 05:33N 55°20' E 012°30'9 8.7
2015-Feb-14 04:34N 55°28' E 012°37'8 8.0
2015-Feb-14 03:33N 55°36' E 012°42'8 7.5
2015-Feb-14 02:33N 55°43' E 012°41'8 8.3
2015-Feb-14 01:33N 55°51' E 012°39'8 8.1
2015-Feb-14 00:33N 55°59' E 012°38'6 6.4
2015-Feb-13 23:33N 56°05' E 012°34'7 7.0
2015-Feb-13 22:33N 56°09' E 012°24'9 8.5
2015-Feb-13 21:33N 56°12' E 012°09'10 8.8
2015-Feb-13 20:26N 56°14' E 011°52'56 2.3
2015-Feb-12 20:22N 56°59' E 010°51'9 8.0
2015-Feb-12 19:18N 57°08' E 010°46'7 7.8
2015-Feb-12 18:26N 57°14' E 010°43'8 7.9
2015-Feb-12 17:29N 57°21' E 010°39'6 0.6
2015-Feb-12 07:11N 57°26' E 010°33'0 0.1
2015-Feb-12 06:28N 57°26' E 010°33'28 6.9
2015-Feb-12 02:29N 57°52' E 010°54'7 7.4
2015-Feb-12 01:33N 57°57' E 011°01'7 7.2
2015-Feb-12 00:33N 58°04' E 011°08'6 6.2
2015-Feb-11 23:33N 58°09' E 011°13'6 6.4
2015-Feb-11 22:33N 58°15' E 011°19'4 4.1
2015-Feb-11 21:33N 58°16' E 011°27'1 0.8
2015-Feb-11 20:30N 58°17' E 011°27'0 0.0
2015-Feb-11 19:33N 58°17' E 011°27'0 0.0
2015-Feb-11 18:33N 58°17' E 011°27'0 0.0
2015-Feb-11 17:27N 58°17' E 011°27'0 0.0
2015-Feb-11 16:33N 58°17' E 011°27'0 0.0
2015-Feb-11 15:33N 58°17' E 011°27'0 0.0
2015-Feb-11 14:33N 58°17' E 011°27'0 0.0
2015-Feb-11 13:30N 58°17' E 011°27'0 0.0
2015-Feb-11 12:21N 58°17' E 011°27'0 0.0
2015-Feb-11 11:30N 58°17' E 011°27'0 0.0
2015-Feb-11 10:33N 58°17' E 011°27'0 0.0
2015-Feb-11 09:27N 58°17' E 011°27'0 0.0
2015-Feb-11 08:24N 58°17' E 011°27'0 0.0
2015-Feb-11 07:33N 58°17' E 011°27'0 0.0
2015-Feb-11 06:33N 58°17' E 011°27'0 0.0
2015-Feb-11 05:27N 58°17' E 011°27'0 0.0
2015-Feb-11 04:18N 58°17' E 011°27'0 0.0
2015-Feb-11 03:33N 58°17' E 011°27'0 0.0
2015-Feb-11 02:24N 58°17' E 011°27'0 0.0
2015-Feb-11 01:18N 58°17' E 011°27'0 0.0
2015-Feb-11 00:30N 58°17' E 011°27'0 0.0
2015-Feb-10 23:33N 58°17' E 011°27'0 0.0
2015-Feb-10 22:15N 58°17' E 011°27'0 0.0
2015-Feb-10 21:21N 58°17' E 011°27'0 0.0
2015-Feb-10 20:30N 58°17' E 011°27'0 0.0
2015-Feb-10 19:30N 58°17' E 011°27'0 0.0
2015-Feb-10 18:30N 58°17' E 011°27'0 0.0
2015-Feb-10 17:28N 58°17' E 011°27'3 3.4
2015-Feb-10 16:33N 58°16' E 011°21'8 8.2
2015-Feb-10 15:34N 58°11' E 011°09'9 8.7
2015-Feb-10 14:33N 58°04' E 010°59'9 8.7
2015-Feb-10 13:34N 57°57' E 010°48'9 9.0
2015-Feb-10 12:33N 57°51' E 010°36'9 8.8
2015-Feb-10 11:33N 57°46' E 010°23'51 8.5
2015-Feb-10 05:33N 57°21' E 008°60'7 7.4
2015-Feb-10 04:32N 57°17' E 008°48'22 6.6
2015-Feb-10 01:09N 57°04' E 008°14'43 4.5
2015-Feb-09 15:33N 56°24' E 007°44'23 2.8
2015-Feb-09 07:26N 56°01' E 007°37'3 3.5
2015-Feb-09 06:33N 55°58' E 007°39'5 4.9
2015-Feb-09 05:32N 55°54' E 007°34'29 5.4
2015-Feb-09 00:10N 55°28' E 007°11'3 4.4
2015-Feb-08 23:34N 55°26' E 007°09'5 4.8
2015-Feb-08 22:33N 55°22' E 007°05'5 4.9
2015-Feb-08 21:33N 55°17' E 007°02'6 5.7
2015-Feb-08 20:34N 55°12' E 006°59'6 5.8
2015-Feb-08 19:34N 55°06' E 006°56'6 5.9
2015-Feb-08 18:33N 55°01' E 006°52'90 3.3
2015-Feb-07 15:20N 53°31' E 006°47'810.5
2015-Feb-07 14:33N 53°25' E 006°56'  

Dump ship's entire track history